sensor_id;sensor_type;location;lat;lon;timestamp;temperature;humidity
73322;DHT22;61549;37.044;22.128;2022-09-12T00:00:30;27.70;43.50
73322;DHT22;61549;37.044;22.128;2022-09-12T00:02:59;27.70;43.00
73322;DHT22;61549;37.044;22.128;2022-09-12T00:05:25;27.70;42.90
73322;DHT22;61549;37.044;22.128;2022-09-12T00:07:53;27.70;43.10
73322;DHT22;61549;37.044;22.128;2022-09-12T00:10:18;27.70;42.90
73322;DHT22;61549;37.044;22.128;2022-09-12T00:12:44;27.70;42.20
73322;DHT22;61549;37.044;22.128;2022-09-12T00:15:10;27.80;42.20
73322;DHT22;61549;37.044;22.128;2022-09-12T00:17:37;27.80;42.60
73322;DHT22;61549;37.044;22.128;2022-09-12T00:20:05;27.80;42.50
73322;DHT22;61549;37.044;22.128;2022-09-12T00:22:32;27.80;42.50
73322;DHT22;61549;37.044;22.128;2022-09-12T00:24:58;27.90;42.70
73322;DHT22;61549;37.044;22.128;2022-09-12T00:27:25;27.90;43.20
73322;DHT22;61549;37.044;22.128;2022-09-12T00:29:51;27.90;43.70
73322;DHT22;61549;37.044;22.128;2022-09-12T00:32:17;27.90;43.20
73322;DHT22;61549;37.044;22.128;2022-09-12T00:34:43;27.80;42.90
73322;DHT22;61549;37.044;22.128;2022-09-12T00:37:09;27.70;42.70
73322;DHT22;61549;37.044;22.128;2022-09-12T00:39:35;27.70;42.50
73322;DHT22;61549;37.044;22.128;2022-09-12T00:42:01;27.70;42.90
73322;DHT22;61549;37.044;22.128;2022-09-12T00:46:53;27.70;42.00
73322;DHT22;61549;37.044;22.128;2022-09-12T00:52:55;27.80;42.10
73322;DHT22;61549;37.044;22.128;2022-09-12T00:55:28;27.80;42.40
73322;DHT22;61549;37.044;22.128;2022-09-12T00:58:21;27.80;41.90
73322;DHT22;61549;37.044;22.128;2022-09-12T01:00:48;27.90;41.40
73322;DHT22;61549;37.044;22.128;2022-09-12T01:03:17;27.90;41.10
73322;DHT22;61549;37.044;22.128;2022-09-12T01:05:52;28.00;40.90
73322;DHT22;61549;37.044;22.128;2022-09-12T01:08:20;28.10;41.50
73322;DHT22;61549;37.044;22.128;2022-09-12T01:10:47;28.00;41.30
73322;DHT22;61549;37.044;22.128;2022-09-12T01:13:14;28.10;41.10
73322;DHT22;61549;37.044;22.128;2022-09-12T01:15:40;28.10;40.90
73322;DHT22;61549;37.044;22.128;2022-09-12T01:23:59;28.10;40.50
73322;DHT22;61549;37.044;22.128;2022-09-12T01:26:56;28.10;40.10
73322;DHT22;61549;37.044;22.128;2022-09-12T01:32:18;28.10;40.20
73322;DHT22;61549;37.044;22.128;2022-09-12T01:37:30;28.10;40.50
73322;DHT22;61549;37.044;22.128;2022-09-12T01:42:45;28.00;40.50
73322;DHT22;61549;37.044;22.128;2022-09-12T01:45:30;28.00;40.60
73322;DHT22;61549;37.044;22.128;2022-09-12T01:48:03;27.90;40.60
73322;DHT22;61549;37.044;22.128;2022-09-12T01:50:37;27.90;40.70
73322;DHT22;61549;37.044;22.128;2022-09-12T01:53:19;27.90;40.60
73322;DHT22;61549;37.044;22.128;2022-09-12T01:55:57;27.80;40.70
73322;DHT22;61549;37.044;22.128;2022-09-12T01:58:39;27.80;40.90
73322;DHT22;61549;37.044;22.128;2022-09-12T02:01:26;27.80;40.80
73322;DHT22;61549;37.044;22.128;2022-09-12T02:03:59;27.80;40.80
73322;DHT22;61549;37.044;22.128;2022-09-12T02:06:48;27.80;40.80
73322;DHT22;61549;37.044;22.128;2022-09-12T02:09:35;27.80;40.70
73322;DHT22;61549;37.044;22.128;2022-09-12T02:12:05;27.80;40.50
73322;DHT22;61549;37.044;22.128;2022-09-12T02:14:37;27.80;40.60
73322;DHT22;61549;37.044;22.128;2022-09-12T02:17:15;27.80;40.80
73322;DHT22;61549;37.044;22.128;2022-09-12T02:19:49;27.70;40.60
73322;DHT22;61549;37.044;22.128;2022-09-12T02:22:19;27.70;40.70
73322;DHT22;61549;37.044;22.128;2022-09-12T02:24:49;27.70;40.70
73322;DHT22;61549;37.044;22.128;2022-09-12T02:27:27;27.80;40.60
73322;DHT22;61549;37.044;22.128;2022-09-12T02:29:55;27.70;40.60
73322;DHT22;61549;37.044;22.128;2022-09-12T02:32:35;27.60;40.50
73322;DHT22;61549;37.044;22.128;2022-09-12T02:38:14;27.60;40.60
73322;DHT22;61549;37.044;22.128;2022-09-12T02:40:42;27.60;41.00
73322;DHT22;61549;37.044;22.128;2022-09-12T02:43:08;27.50;41.00
73322;DHT22;61549;37.044;22.128;2022-09-12T02:45:34;27.50;40.80
73322;DHT22;61549;37.044;22.128;2022-09-12T02:48:18;27.50;40.60
73322;DHT22;61549;37.044;22.128;2022-09-12T02:50:45;27.50;40.50
73322;DHT22;61549;37.044;22.128;2022-09-12T02:53:11;27.40;40.50
73322;DHT22;61549;37.044;22.128;2022-09-12T02:55:39;27.40;40.70
73322;DHT22;61549;37.044;22.128;2022-09-12T02:58:10;27.40;40.60
73322;DHT22;61549;37.044;22.128;2022-09-12T03:01:11;27.40;40.60
73322;DHT22;61549;37.044;22.128;2022-09-12T03:07:05;27.40;40.70
73322;DHT22;61549;37.044;22.128;2022-09-12T03:15:15;27.30;40.20
73322;DHT22;61549;37.044;22.128;2022-09-12T03:18:01;27.30;40.40
73322;DHT22;61549;37.044;22.128;2022-09-12T03:23:30;27.30;40.30
73322;DHT22;61549;37.044;22.128;2022-09-12T03:26:06;27.30;39.70
73322;DHT22;61549;37.044;22.128;2022-09-12T03:28:35;27.20;39.70
73322;DHT22;61549;37.044;22.128;2022-09-12T03:31:11;27.10;39.60
73322;DHT22;61549;37.044;22.128;2022-09-12T03:33:38;27.10;39.20
73322;DHT22;61549;37.044;22.128;2022-09-12T03:36:04;27.10;38.80
73322;DHT22;61549;37.044;22.128;2022-09-12T03:38:30;27.20;38.80
73322;DHT22;61549;37.044;22.128;2022-09-12T03:40:56;27.10;38.70
73322;DHT22;61549;37.044;22.128;2022-09-12T03:43:21;27.10;38.20
73322;DHT22;61549;37.044;22.128;2022-09-12T03:45:50;27.10;37.80
73322;DHT22;61549;37.044;22.128;2022-09-12T03:48:19;27.10;38.30
73322;DHT22;61549;37.044;22.128;2022-09-12T03:50:45;27.10;38.50
73322;DHT22;61549;37.044;22.128;2022-09-12T03:53:10;27.10;37.90
73322;DHT22;61549;37.044;22.128;2022-09-12T03:55:38;27.10;38.80
73322;DHT22;61549;37.044;22.128;2022-09-12T03:58:03;27.00;40.30
73322;DHT22;61549;37.044;22.128;2022-09-12T04:00:29;26.90;38.90
73322;DHT22;61549;37.044;22.128;2022-09-12T04:02:56;26.70;39.80
73322;DHT22;61549;37.044;22.128;2022-09-12T04:05:23;26.70;40.00
73322;DHT22;61549;37.044;22.128;2022-09-12T04:07:49;26.60;39.70
73322;DHT22;61549;37.044;22.128;2022-09-12T04:10:15;26.60;39.70
73322;DHT22;61549;37.044;22.128;2022-09-12T04:12:41;26.40;39.60
73322;DHT22;61549;37.044;22.128;2022-09-12T04:15:08;26.30;39.30
73322;DHT22;61549;37.044;22.128;2022-09-12T04:17:34;26.30;39.40
73322;DHT22;61549;37.044;22.128;2022-09-12T04:20:00;26.20;39.60
73322;DHT22;61549;37.044;22.128;2022-09-12T04:22:26;26.10;39.50
73322;DHT22;61549;37.044;22.128;2022-09-12T04:24:52;26.00;39.60
73322;DHT22;61549;37.044;22.128;2022-09-12T04:27:18;25.90;39.70
73322;DHT22;61549;37.044;22.128;2022-09-12T04:29:44;25.90;37.30
73322;DHT22;61549;37.044;22.128;2022-09-12T04:32:09;25.80;36.80
73322;DHT22;61549;37.044;22.128;2022-09-12T04:34:35;25.80;36.50
73322;DHT22;61549;37.044;22.128;2022-09-12T04:37:01;25.80;36.00
73322;DHT22;61549;37.044;22.128;2022-09-12T04:39:27;25.80;35.70
73322;DHT22;61549;37.044;22.128;2022-09-12T04:41:53;26.00;35.90
73322;DHT22;61549;37.044;22.128;2022-09-12T04:44:19;26.10;35.60
73322;DHT22;61549;37.044;22.128;2022-09-12T04:46:47;26.10;35.50
73322;DHT22;61549;37.044;22.128;2022-09-12T04:49:13;26.30;35.60
73322;DHT22;61549;37.044;22.128;2022-09-12T04:51:41;26.40;35.70
73322;DHT22;61549;37.044;22.128;2022-09-12T04:54:11;26.50;35.90
73322;DHT22;61549;37.044;22.128;2022-09-12T04:56:39;26.50;36.10
73322;DHT22;61549;37.044;22.128;2022-09-12T04:59:05;26.50;36.10
73322;DHT22;61549;37.044;22.128;2022-09-12T05:01:32;26.50;37.20
73322;DHT22;61549;37.044;22.128;2022-09-12T05:03:58;26.50;37.70
73322;DHT22;61549;37.044;22.128;2022-09-12T05:06:31;26.50;37.50
73322;DHT22;61549;37.044;22.128;2022-09-12T05:08:59;26.40;37.30
73322;DHT22;61549;37.044;22.128;2022-09-12T05:11:31;26.40;38.00
73322;DHT22;61549;37.044;22.128;2022-09-12T05:13:57;26.40;39.10
73322;DHT22;61549;37.044;22.128;2022-09-12T05:16:25;26.40;39.80
73322;DHT22;61549;37.044;22.128;2022-09-12T05:18:51;26.40;40.10
73322;DHT22;61549;37.044;22.128;2022-09-12T05:21:20;26.40;40.40
73322;DHT22;61549;37.044;22.128;2022-09-12T05:23:50;26.50;40.30
73322;DHT22;61549;37.044;22.128;2022-09-12T05:26:17;26.50;40.30
73322;DHT22;61549;37.044;22.128;2022-09-12T05:28:45;26.60;40.40
73322;DHT22;61549;37.044;22.128;2022-09-12T05:33:47;26.80;40.70
73322;DHT22;61549;37.044;22.128;2022-09-12T05:36:16;26.80;41.00
73322;DHT22;61549;37.044;22.128;2022-09-12T05:38:43;26.90;41.20
73322;DHT22;61549;37.044;22.128;2022-09-12T05:41:11;27.10;41.40
73322;DHT22;61549;37.044;22.128;2022-09-12T05:43:39;26.90;41.90
73322;DHT22;61549;37.044;22.128;2022-09-12T05:46:14;27.00;41.90
73322;DHT22;61549;37.044;22.128;2022-09-12T05:48:42;27.00;42.10
73322;DHT22;61549;37.044;22.128;2022-09-12T05:51:11;27.20;42.10
73322;DHT22;61549;37.044;22.128;2022-09-12T05:53:38;27.40;42.00
73322;DHT22;61549;37.044;22.128;2022-09-12T05:56:13;27.60;42.40
73322;DHT22;61549;37.044;22.128;2022-09-12T05:58:44;27.80;42.00
73322;DHT22;61549;37.044;22.128;2022-09-12T06:01:15;27.90;41.40
73322;DHT22;61549;37.044;22.128;2022-09-12T06:03:46;27.90;41.40
73322;DHT22;61549;37.044;22.128;2022-09-12T06:06:14;28.20;41.90
73322;DHT22;61549;37.044;22.128;2022-09-12T06:08:42;28.30;41.70
73322;DHT22;61549;37.044;22.128;2022-09-12T06:11:10;28.60;41.70
73322;DHT22;61549;37.044;22.128;2022-09-12T06:13:38;28.60;41.30
73322;DHT22;61549;37.044;22.128;2022-09-12T06:16:08;28.70;41.40
73322;DHT22;61549;37.044;22.128;2022-09-12T06:18:35;28.70;41.40
73322;DHT22;61549;37.044;22.128;2022-09-12T06:21:05;28.90;41.20
73322;DHT22;61549;37.044;22.128;2022-09-12T06:23:32;29.00;40.90
73322;DHT22;61549;37.044;22.128;2022-09-12T06:25:58;29.10;40.30
73322;DHT22;61549;37.044;22.128;2022-09-12T06:28:25;29.30;40.70
73322;DHT22;61549;37.044;22.128;2022-09-12T06:30:51;29.60;39.80
73322;DHT22;61549;37.044;22.128;2022-09-12T06:33:17;29.70;39.80
73322;DHT22;61549;37.044;22.128;2022-09-12T06:35:43;30.00;39.40
73322;DHT22;61549;37.044;22.128;2022-09-12T06:38:09;30.20;39.20
73322;DHT22;61549;37.044;22.128;2022-09-12T06:40:40;30.40;38.80
73322;DHT22;61549;37.044;22.128;2022-09-12T06:43:10;30.80;38.30
73322;DHT22;61549;37.044;22.128;2022-09-12T06:45:35;31.00;36.60
73322;DHT22;61549;37.044;22.128;2022-09-12T06:48:01;31.10;36.80
73322;DHT22;61549;37.044;22.128;2022-09-12T06:50:27;31.40;37.40
73322;DHT22;61549;37.044;22.128;2022-09-12T06:52:53;31.50;36.80
73322;DHT22;61549;37.044;22.128;2022-09-12T06:55:19;31.60;37.10
73322;DHT22;61549;37.044;22.128;2022-09-12T06:57:45;31.70;38.00
73322;DHT22;61549;37.044;22.128;2022-09-12T07:00:11;31.80;37.90
73322;DHT22;61549;37.044;22.128;2022-09-12T07:02:37;31.90;38.20
73322;DHT22;61549;37.044;22.128;2022-09-12T07:05:03;32.10;37.60
73322;DHT22;61549;37.044;22.128;2022-09-12T07:07:29;32.40;37.60
73322;DHT22;61549;37.044;22.128;2022-09-12T07:09:58;32.50;37.70
73322;DHT22;61549;37.044;22.128;2022-09-12T07:12:27;32.70;37.30
73322;DHT22;61549;37.044;22.128;2022-09-12T07:14:53;32.80;37.20
73322;DHT22;61549;37.044;22.128;2022-09-12T07:17:19;32.80;37.60
73322;DHT22;61549;37.044;22.128;2022-09-12T07:19:45;32.90;36.90
73322;DHT22;61549;37.044;22.128;2022-09-12T07:22:11;33.00;37.30
73322;DHT22;61549;37.044;22.128;2022-09-12T07:24:36;33.00;37.00
73322;DHT22;61549;37.044;22.128;2022-09-12T07:27:03;33.10;36.90
73322;DHT22;61549;37.044;22.128;2022-09-12T07:29:29;33.20;36.90
73322;DHT22;61549;37.044;22.128;2022-09-12T07:31:54;33.30;36.60
73322;DHT22;61549;37.044;22.128;2022-09-12T07:34:20;33.30;37.00
73322;DHT22;61549;37.044;22.128;2022-09-12T07:36:46;33.30;37.00
73322;DHT22;61549;37.044;22.128;2022-09-12T07:39:12;33.20;37.70
73322;DHT22;61549;37.044;22.128;2022-09-12T07:41:38;33.30;37.30
73322;DHT22;61549;37.044;22.128;2022-09-12T07:44:05;32.90;37.40
73322;DHT22;61549;37.044;22.128;2022-09-12T07:46:33;33.00;37.40
73322;DHT22;61549;37.044;22.128;2022-09-12T07:49:01;33.00;37.30
73322;DHT22;61549;37.044;22.128;2022-09-12T07:51:29;33.20;37.30
73322;DHT22;61549;37.044;22.128;2022-09-12T07:53:55;33.20;37.40
73322;DHT22;61549;37.044;22.128;2022-09-12T07:56:21;33.30;37.20
73322;DHT22;61549;37.044;22.128;2022-09-12T07:58:47;33.10;37.30
73322;DHT22;61549;37.044;22.128;2022-09-12T08:03:42;33.00;37.90
73322;DHT22;61549;37.044;22.128;2022-09-12T08:06:17;32.80;37.80
73322;DHT22;61549;37.044;22.128;2022-09-12T08:08:46;33.00;37.80
73322;DHT22;61549;37.044;22.128;2022-09-12T08:11:15;33.20;37.60
73322;DHT22;61549;37.044;22.128;2022-09-12T08:13:41;32.90;37.00
73322;DHT22;61549;37.044;22.128;2022-09-12T08:16:16;32.90;37.40
73322;DHT22;61549;37.044;22.128;2022-09-12T08:18:43;32.80;37.70
73322;DHT22;61549;37.044;22.128;2022-09-12T08:21:14;33.00;38.30
73322;DHT22;61549;37.044;22.128;2022-09-12T08:23:42;32.90;37.20
73322;DHT22;61549;37.044;22.128;2022-09-12T08:26:09;33.00;38.40
73322;DHT22;61549;37.044;22.128;2022-09-12T08:28:35;33.20;38.50
73322;DHT22;61549;37.044;22.128;2022-09-12T08:31:03;33.30;37.90
73322;DHT22;61549;37.044;22.128;2022-09-12T08:33:30;33.50;37.50
73322;DHT22;61549;37.044;22.128;2022-09-12T08:36:26;33.60;36.60
73322;DHT22;61549;37.044;22.128;2022-09-12T08:39:03;33.60;36.70
73322;DHT22;61549;37.044;22.128;2022-09-12T08:49:35;33.80;35.10
73322;DHT22;61549;37.044;22.128;2022-09-12T08:52:11;34.00;34.50
73322;DHT22;61549;37.044;22.128;2022-09-12T08:54:39;34.20;35.30
73322;DHT22;61549;37.044;22.128;2022-09-12T08:57:07;34.20;34.00
73322;DHT22;61549;37.044;22.128;2022-09-12T08:59:40;34.30;33.90
73322;DHT22;61549;37.044;22.128;2022-09-12T09:04:55;34.50;34.10
73322;DHT22;61549;37.044;22.128;2022-09-12T09:07:48;34.50;34.90
73322;DHT22;61549;37.044;22.128;2022-09-12T09:10:30;34.40;34.40
73322;DHT22;61549;37.044;22.128;2022-09-12T09:18:33;34.60;35.60
73322;DHT22;61549;37.044;22.128;2022-09-12T09:21:28;34.50;35.20
73322;DHT22;61549;37.044;22.128;2022-09-12T09:24:05;34.50;35.00
73322;DHT22;61549;37.044;22.128;2022-09-12T09:29:18;34.70;35.00
73322;DHT22;61549;37.044;22.128;2022-09-12T09:31:51;34.70;35.40
73322;DHT22;61549;37.044;22.128;2022-09-12T09:34:22;34.70;36.00
73322;DHT22;61549;37.044;22.128;2022-09-12T09:39:29;34.70;34.80
73322;DHT22;61549;37.044;22.128;2022-09-12T09:44:28;34.90;34.40
73322;DHT22;61549;37.044;22.128;2022-09-12T09:46:58;35.10;34.30
73322;DHT22;61549;37.044;22.128;2022-09-12T09:49:28;35.20;34.70
73322;DHT22;61549;37.044;22.128;2022-09-12T09:51:57;35.30;34.30
73322;DHT22;61549;37.044;22.128;2022-09-12T09:54:35;35.30;34.10
73322;DHT22;61549;37.044;22.128;2022-09-12T09:57:03;35.40;33.70
73322;DHT22;61549;37.044;22.128;2022-09-12T09:59:33;35.30;33.70
73322;DHT22;61549;37.044;22.128;2022-09-12T10:02:18;35.30;34.00
73322;DHT22;61549;37.044;22.128;2022-09-12T10:04:56;35.30;34.00
73322;DHT22;61549;37.044;22.128;2022-09-12T10:07:23;35.50;33.30
73322;DHT22;61549;37.044;22.128;2022-09-12T10:10:14;35.60;32.60
73322;DHT22;61549;37.044;22.128;2022-09-12T10:12:40;35.70;32.60
73322;DHT22;61549;37.044;22.128;2022-09-12T10:15:24;35.80;32.40
73322;DHT22;61549;37.044;22.128;2022-09-12T10:17:54;35.80;32.50
73322;DHT22;61549;37.044;22.128;2022-09-12T10:20:43;35.90;32.60
73322;DHT22;61549;37.044;22.128;2022-09-12T10:25:55;36.00;32.80
73322;DHT22;61549;37.044;22.128;2022-09-12T10:28:29;36.00;32.60
73322;DHT22;61549;37.044;22.128;2022-09-12T10:30:56;36.10;32.50
73322;DHT22;61549;37.044;22.128;2022-09-12T10:33:27;36.10;32.30
73322;DHT22;61549;37.044;22.128;2022-09-12T10:35:54;36.20;32.50
73322;DHT22;61549;37.044;22.128;2022-09-12T10:38:23;36.30;31.70
73322;DHT22;61549;37.044;22.128;2022-09-12T10:41:06;36.40;32.60
73322;DHT22;61549;37.044;22.128;2022-09-12T10:48:45;36.50;32.70
73322;DHT22;61549;37.044;22.128;2022-09-12T10:53:56;36.50;32.20
73322;DHT22;61549;37.044;22.128;2022-09-12T10:56:28;36.60;32.60
73322;DHT22;61549;37.044;22.128;2022-09-12T10:59:24;36.60;32.40
73322;DHT22;61549;37.044;22.128;2022-09-12T11:02:18;36.70;32.10
73322;DHT22;61549;37.044;22.128;2022-09-12T11:10:44;36.90;32.60
73322;DHT22;61549;37.044;22.128;2022-09-12T11:27:42;36.80;32.60
73322;DHT22;61549;37.044;22.128;2022-09-12T11:30:13;36.90;32.70
73322;DHT22;61549;37.044;22.128;2022-09-12T11:35:37;36.90;33.00
73322;DHT22;61549;37.044;22.128;2022-09-12T11:38:27;37.10;33.30
73322;DHT22;61549;37.044;22.128;2022-09-12T11:41:36;37.10;32.90
73322;DHT22;61549;37.044;22.128;2022-09-12T11:46:39;37.30;33.30
73322;DHT22;61549;37.044;22.128;2022-09-12T11:56:43;37.30;32.40
73322;DHT22;61549;37.044;22.128;2022-09-12T12:01:55;37.10;32.80
73322;DHT22;61549;37.044;22.128;2022-09-12T12:04:33;37.00;32.90
73322;DHT22;61549;37.044;22.128;2022-09-12T12:07:06;37.10;32.30
73322;DHT22;61549;37.044;22.128;2022-09-12T12:09:34;37.00;32.60
73322;DHT22;61549;37.044;22.128;2022-09-12T12:12:04;37.20;31.90
73322;DHT22;61549;37.044;22.128;2022-09-12T12:14:39;37.30;31.70
73322;DHT22;61549;37.044;22.128;2022-09-12T12:17:33;37.30;31.80
73322;DHT22;61549;37.044;22.128;2022-09-12T12:20:02;37.30;31.60
73322;DHT22;61549;37.044;22.128;2022-09-12T12:22:29;37.20;31.90
73322;DHT22;61549;37.044;22.128;2022-09-12T12:25:37;37.30;32.20
73322;DHT22;61549;37.044;22.128;2022-09-12T12:28:03;37.20;31.80
73322;DHT22;61549;37.044;22.128;2022-09-12T12:38:01;36.90;32.50
73322;DHT22;61549;37.044;22.128;2022-09-12T12:40:29;37.00;32.30
73322;DHT22;61549;37.044;22.128;2022-09-12T12:43:02;37.00;32.50
73322;DHT22;61549;37.044;22.128;2022-09-12T12:48:00;36.90;32.30
73322;DHT22;61549;37.044;22.128;2022-09-12T12:50:33;36.90;32.20
73322;DHT22;61549;37.044;22.128;2022-09-12T12:55:44;36.90;32.20
73322;DHT22;61549;37.044;22.128;2022-09-12T12:58:35;36.80;31.90
73322;DHT22;61549;37.044;22.128;2022-09-12T13:01:16;36.80;32.50
73322;DHT22;61549;37.044;22.128;2022-09-12T13:03:57;36.90;32.00
73322;DHT22;61549;37.044;22.128;2022-09-12T13:06:38;36.90;31.70
73322;DHT22;61549;37.044;22.128;2022-09-12T13:12:25;36.80;31.60
73322;DHT22;61549;37.044;22.128;2022-09-12T13:14:51;36.60;31.60
73322;DHT22;61549;37.044;22.128;2022-09-12T13:17:30;36.50;31.40
73322;DHT22;61549;37.044;22.128;2022-09-12T13:20:15;36.40;31.20
73322;DHT22;61549;37.044;22.128;2022-09-12T13:22:46;36.50;31.40
73322;DHT22;61549;37.044;22.128;2022-09-12T13:25:23;36.40;31.10
73322;DHT22;61549;37.044;22.128;2022-09-12T13:30:36;36.40;30.30
73322;DHT22;61549;37.044;22.128;2022-09-12T13:33:29;36.20;30.30
73322;DHT22;61549;37.044;22.128;2022-09-12T13:44:18;36.00;30.40
73322;DHT22;61549;37.044;22.128;2022-09-12T13:46:45;35.90;30.40
73322;DHT22;61549;37.044;22.128;2022-09-12T13:49:37;35.80;30.70
73322;DHT22;61549;37.044;22.128;2022-09-12T13:52:07;36.00;30.30
73322;DHT22;61549;37.044;22.128;2022-09-12T13:54:35;36.00;30.00
73322;DHT22;61549;37.044;22.128;2022-09-12T13:57:03;35.90;30.20
73322;DHT22;61549;37.044;22.128;2022-09-12T13:59:40;35.90;30.60
73322;DHT22;61549;37.044;22.128;2022-09-12T14:02:18;35.90;31.10
73322;DHT22;61549;37.044;22.128;2022-09-12T14:04:50;35.90;31.50
73322;DHT22;61549;37.044;22.128;2022-09-12T14:07:46;35.90;31.20
73322;DHT22;61549;37.044;22.128;2022-09-12T14:12:53;35.90;31.70
73322;DHT22;61549;37.044;22.128;2022-09-12T14:15:23;35.80;31.70
73322;DHT22;61549;37.044;22.128;2022-09-12T14:17:53;35.80;32.10
73322;DHT22;61549;37.044;22.128;2022-09-12T14:20:20;35.70;32.50
73322;DHT22;61549;37.044;22.128;2022-09-12T14:22:50;35.70;33.00
73322;DHT22;61549;37.044;22.128;2022-09-12T14:25:19;35.70;33.30
73322;DHT22;61549;37.044;22.128;2022-09-12T14:27:49;35.80;33.10
73322;DHT22;61549;37.044;22.128;2022-09-12T14:30:23;35.80;32.90
73322;DHT22;61549;37.044;22.128;2022-09-12T14:35:38;35.70;33.10
73322;DHT22;61549;37.044;22.128;2022-09-12T14:38:29;35.70;33.20
73322;DHT22;61549;37.044;22.128;2022-09-12T14:41:07;35.70;33.70
73322;DHT22;61549;37.044;22.128;2022-09-12T14:43:35;35.70;33.60
73322;DHT22;61549;37.044;22.128;2022-09-12T14:46:05;35.80;33.80
73322;DHT22;61549;37.044;22.128;2022-09-12T14:48:35;35.70;33.90
73322;DHT22;61549;37.044;22.128;2022-09-12T14:51:02;35.60;33.90
73322;DHT22;61549;37.044;22.128;2022-09-12T14:53:35;35.50;34.10
73322;DHT22;61549;37.044;22.128;2022-09-12T14:58:30;35.30;34.50
73322;DHT22;61549;37.044;22.128;2022-09-12T15:01:01;35.20;35.20
73322;DHT22;61549;37.044;22.128;2022-09-12T15:06:03;34.90;36.10
73322;DHT22;61549;37.044;22.128;2022-09-12T15:08:30;34.80;36.10
73322;DHT22;61549;37.044;22.128;2022-09-12T15:10:57;34.80;36.40
73322;DHT22;61549;37.044;22.128;2022-09-12T15:13:26;34.60;36.70
73322;DHT22;61549;37.044;22.128;2022-09-12T15:15:58;34.60;37.00
73322;DHT22;61549;37.044;22.128;2022-09-12T15:18:26;34.50;37.30
73322;DHT22;61549;37.044;22.128;2022-09-12T15:21:02;34.40;37.60
73322;DHT22;61549;37.044;22.128;2022-09-12T15:23:48;34.20;38.00
73322;DHT22;61549;37.044;22.128;2022-09-12T15:26:20;34.00;38.50
73322;DHT22;61549;37.044;22.128;2022-09-12T15:28:47;34.10;38.70
73322;DHT22;61549;37.044;22.128;2022-09-12T15:31:25;34.10;38.50
73322;DHT22;61549;37.044;22.128;2022-09-12T15:33:52;34.20;38.70
73322;DHT22;61549;37.044;22.128;2022-09-12T15:36:20;34.00;38.90
73322;DHT22;61549;37.044;22.128;2022-09-12T15:38:47;34.00;39.10
73322;DHT22;61549;37.044;22.128;2022-09-12T15:41:30;34.00;39.20
73322;DHT22;61549;37.044;22.128;2022-09-12T15:43:57;34.00;39.20
73322;DHT22;61549;37.044;22.128;2022-09-12T15:46:23;33.60;39.70
73322;DHT22;61549;37.044;22.128;2022-09-12T15:48:49;33.60;39.80
73322;DHT22;61549;37.044;22.128;2022-09-12T15:51:19;33.60;39.80
73322;DHT22;61549;37.044;22.128;2022-09-12T15:53:46;33.70;39.80
73322;DHT22;61549;37.044;22.128;2022-09-12T15:56:17;33.70;39.70
73322;DHT22;61549;37.044;22.128;2022-09-12T15:58:44;33.70;39.80
73322;DHT22;61549;37.044;22.128;2022-09-12T16:01:14;33.70;39.90
73322;DHT22;61549;37.044;22.128;2022-09-12T16:03:40;33.70;39.80
73322;DHT22;61549;37.044;22.128;2022-09-12T16:06:07;33.60;39.80
73322;DHT22;61549;37.044;22.128;2022-09-12T16:08:34;33.60;39.50
73322;DHT22;61549;37.044;22.128;2022-09-12T16:11:03;33.50;39.80
73322;DHT22;61549;37.044;22.128;2022-09-12T16:13:31;33.50;39.90
73322;DHT22;61549;37.044;22.128;2022-09-12T16:15:58;33.60;40.00
73322;DHT22;61549;37.044;22.128;2022-09-12T16:18:25;33.40;40.00
73322;DHT22;61549;37.044;22.128;2022-09-12T16:20:52;33.30;40.00
73322;DHT22;61549;37.044;22.128;2022-09-12T16:23:18;33.20;40.30
73322;DHT22;61549;37.044;22.128;2022-09-12T16:25:44;33.10;40.30
73322;DHT22;61549;37.044;22.128;2022-09-12T16:28:10;33.00;40.60
73322;DHT22;61549;37.044;22.128;2022-09-12T16:30:36;32.90;40.70
73322;DHT22;61549;37.044;22.128;2022-09-12T16:33:05;32.90;40.50
73322;DHT22;61549;37.044;22.128;2022-09-12T16:35:31;32.90;40.70
73322;DHT22;61549;37.044;22.128;2022-09-12T16:37:57;32.80;40.80
73322;DHT22;61549;37.044;22.128;2022-09-12T16:40:23;32.70;41.00
73322;DHT22;61549;37.044;22.128;2022-09-12T16:42:49;32.60;41.30
73322;DHT22;61549;37.044;22.128;2022-09-12T16:45:15;32.50;41.40
73322;DHT22;61549;37.044;22.128;2022-09-12T16:47:41;32.50;41.40
73322;DHT22;61549;37.044;22.128;2022-09-12T16:50:07;32.50;41.20
73322;DHT22;61549;37.044;22.128;2022-09-12T16:52:34;32.30;41.20
73322;DHT22;61549;37.044;22.128;2022-09-12T16:54:59;32.30;41.20
73322;DHT22;61549;37.044;22.128;2022-09-12T16:57:25;32.30;41.10
73322;DHT22;61549;37.044;22.128;2022-09-12T16:59:51;32.30;41.20
73322;DHT22;61549;37.044;22.128;2022-09-12T17:02:17;32.30;41.40
73322;DHT22;61549;37.044;22.128;2022-09-12T17:04:43;32.20;41.70
73322;DHT22;61549;37.044;22.128;2022-09-12T17:07:08;32.10;42.00
73322;DHT22;61549;37.044;22.128;2022-09-12T17:09:34;32.00;42.00
73322;DHT22;61549;37.044;22.128;2022-09-12T17:12:00;31.90;42.10
73322;DHT22;61549;37.044;22.128;2022-09-12T17:14:26;31.80;42.20
73322;DHT22;61549;37.044;22.128;2022-09-12T17:16:52;31.70;42.20
73322;DHT22;61549;37.044;22.128;2022-09-12T17:19:24;31.70;42.20
73322;DHT22;61549;37.044;22.128;2022-09-12T17:21:51;31.60;42.30
73322;DHT22;61549;37.044;22.128;2022-09-12T17:24:18;31.50;42.10
73322;DHT22;61549;37.044;22.128;2022-09-12T17:26:45;31.50;42.30
73322;DHT22;61549;37.044;22.128;2022-09-12T17:29:12;31.50;42.30
73322;DHT22;61549;37.044;22.128;2022-09-12T17:31:39;31.60;42.60
73322;DHT22;61549;37.044;22.128;2022-09-12T17:34:05;31.80;42.70
73322;DHT22;61549;37.044;22.128;2022-09-12T17:36:31;31.80;42.80
73322;DHT22;61549;37.044;22.128;2022-09-12T17:38:59;31.90;42.70
73322;DHT22;61549;37.044;22.128;2022-09-12T17:41:27;31.80;42.60
73322;DHT22;61549;37.044;22.128;2022-09-12T17:43:55;31.70;42.60
73322;DHT22;61549;37.044;22.128;2022-09-12T17:46:24;31.70;42.90
73322;DHT22;61549;37.044;22.128;2022-09-12T17:48:52;31.70;43.10
73322;DHT22;61549;37.044;22.128;2022-09-12T17:51:18;31.60;43.10
73322;DHT22;61549;37.044;22.128;2022-09-12T17:53:43;31.60;43.00
73322;DHT22;61549;37.044;22.128;2022-09-12T17:56:10;31.50;42.50
73322;DHT22;61549;37.044;22.128;2022-09-12T17:58:36;31.50;42.90
73322;DHT22;61549;37.044;22.128;2022-09-12T18:01:06;31.40;43.20
73322;DHT22;61549;37.044;22.128;2022-09-12T18:03:55;31.40;43.40